createdAt,value
2022-08-26T00:00:10.320Z,11.70
2022-08-26T00:01:10.226Z,10.50
2022-08-26T00:02:10.249Z,11.90
2022-08-26T00:03:10.432Z,11.20
2022-08-26T00:04:10.224Z,11.30
2022-08-26T00:05:10.203Z,11.40
2022-08-26T00:06:10.177Z,12.10
2022-08-26T00:07:10.167Z,11.00
2022-08-26T00:08:10.162Z,11.20
2022-08-26T00:09:10.298Z,11.30
2022-08-26T00:10:10.149Z,10.80
2022-08-26T00:11:10.132Z,11.00
2022-08-26T00:12:12.464Z,12.10
2022-08-26T00:13:10.098Z,11.70
2022-08-26T00:14:10.424Z,12.00
2022-08-26T00:15:10.084Z,11.20
2022-08-26T00:16:20.987Z,11.90
2022-08-26T00:17:10.063Z,12.10
2022-08-26T00:18:16.823Z,11.30
2022-08-26T00:19:11.259Z,11.80
2022-08-26T00:20:10.028Z,12.10
2022-08-26T00:21:10.020Z,11.40
2022-08-26T00:22:10.006Z,12.00
2022-08-26T00:23:09.988Z,12.00
2022-08-26T00:24:09.984Z,11.50
2022-08-26T00:25:10.420Z,11.30
2022-08-26T00:26:11.001Z,11.60
2022-08-26T00:27:09.978Z,11.60
2022-08-26T00:28:10.986Z,11.30
2022-08-26T00:29:09.930Z,12.00
2022-08-26T00:30:09.927Z,11.90
2022-08-26T00:31:11.050Z,10.60
2022-08-26T00:32:09.937Z,11.10
2022-08-26T00:33:10.176Z,11.20
2022-08-26T00:34:11.235Z,11.50
2022-08-26T00:35:09.860Z,11.80
2022-08-26T00:36:19.977Z,11.60
2022-08-26T00:37:15.651Z,12.90
2022-08-26T00:38:10.831Z,11.90
2022-08-26T00:39:09.828Z,12.10
2022-08-26T00:40:09.843Z,11.60
2022-08-26T00:41:09.800Z,10.90
2022-08-26T00:42:09.803Z,11.60
2022-08-26T00:43:10.054Z,11.60
2022-08-26T00:44:09.769Z,11.80
2022-08-26T00:45:11.551Z,11.90
2022-08-26T00:46:09.819Z,11.60
2022-08-26T00:47:09.736Z,11.60
2022-08-26T00:48:09.727Z,11.70
2022-08-26T00:49:11.868Z,11.60
2022-08-26T00:50:09.706Z,11.30
2022-08-26T00:51:09.696Z,12.00
2022-08-26T00:52:09.945Z,11.50
2022-08-26T00:53:09.673Z,11.60
2022-08-26T00:54:10.744Z,11.50
2022-08-26T00:55:09.642Z,11.80
2022-08-26T00:56:09.650Z,12.00
2022-08-26T00:57:16.534Z,11.90
2022-08-26T00:58:10.623Z,11.30
2022-08-26T00:59:09.601Z,11.60
2022-08-26T01:00:09.944Z,11.90
2022-08-26T01:01:09.647Z,11.10
2022-08-26T01:02:09.650Z,12.20
2022-08-26T01:03:11.493Z,11.90
2022-08-26T01:04:09.550Z,11.70
2022-08-26T01:05:09.533Z,11.30
2022-08-26T01:06:12.402Z,12.00
2022-08-26T01:07:09.517Z,11.60
2022-08-26T01:08:09.513Z,12.10
2022-08-26T01:09:09.500Z,12.30
2022-08-26T01:10:09.483Z,12.10
2022-08-26T01:11:09.463Z,12.00
2022-08-26T01:12:09.636Z,12.30
2022-08-26T01:13:09.566Z,12.60
2022-08-26T01:14:09.452Z,11.90
2022-08-26T01:15:09.432Z,12.30
2022-08-26T01:16:09.454Z,12.00
2022-08-26T01:17:09.405Z,12.50
2022-08-26T01:18:09.905Z,11.60
2022-08-26T01:19:09.385Z,12.40
2022-08-26T01:20:09.374Z,10.90
2022-08-26T01:21:09.366Z,11.90
2022-08-26T01:22:09.435Z,12.30
2022-08-26T01:23:09.445Z,12.30
2022-08-26T01:24:10.332Z,12.20
2022-08-26T01:25:09.318Z,11.90
2022-08-26T01:26:09.323Z,12.40
2022-08-26T01:27:10.308Z,12.70
2022-08-26T01:28:09.294Z,12.10
2022-08-26T01:29:09.277Z,12.50
2022-08-26T01:30:09.607Z,12.20
2022-08-26T01:31:09.332Z,11.70
2022-08-26T01:32:09.246Z,11.90
2022-08-26T01:33:09.399Z,11.90
2022-08-26T01:34:09.231Z,12.20
2022-08-26T01:35:09.214Z,11.50
2022-08-26T01:36:09.438Z,11.40
2022-08-26T01:37:09.195Z,11.90
2022-08-26T01:38:10.187Z,12.80
2022-08-26T01:39:09.181Z,11.80
2022-08-26T01:40:09.207Z,11.40
2022-08-26T01:41:14.146Z,12.00
2022-08-26T01:42:11.067Z,11.40
2022-08-26T01:43:09.194Z,10.80
2022-08-26T01:44:09.808Z,12.10
2022-08-26T01:45:09.114Z,11.80
2022-08-26T01:46:09.154Z,13.00
2022-08-26T01:47:09.086Z,12.60
2022-08-26T01:48:09.277Z,12.10
2022-08-26T01:49:09.056Z,12.80
2022-08-26T01:50:09.104Z,11.80
2022-08-26T01:51:09.045Z,12.00
2022-08-26T01:52:09.036Z,12.70
2022-08-26T01:53:10.574Z,12.80
2022-08-26T01:54:12.023Z,12.90
2022-08-26T01:55:09.001Z,12.80
2022-08-26T01:56:09.005Z,12.50
2022-08-26T01:57:08.977Z,12.40
2022-08-26T01:58:08.967Z,12.90
2022-08-26T01:59:09.383Z,13.10
2022-08-26T02:00:08.960Z,12.60
2022-08-26T02:01:09.630Z,12.70
2022-08-26T02:02:08.929Z,12.40
2022-08-26T02:03:08.974Z,12.10
2022-08-26T02:04:08.943Z,12.20
2022-08-26T02:05:09.058Z,12.90
2022-08-26T02:06:09.332Z,12.80
2022-08-26T02:07:16.394Z,12.90
2022-08-26T02:08:08.864Z,12.10
2022-08-26T02:09:08.844Z,12.30
2022-08-26T02:10:08.842Z,12.60
2022-08-26T02:11:08.996Z,12.90
2022-08-26T02:12:08.823Z,13.10
2022-08-26T02:13:08.944Z,12.60
2022-08-26T02:14:08.793Z,11.80
2022-08-26T02:15:08.796Z,12.80
2022-08-26T02:16:08.817Z,12.50
2022-08-26T02:17:08.995Z,12.40
2022-08-26T02:18:08.759Z,13.00
2022-08-26T02:19:09.761Z,13.30
2022-08-26T02:20:13.089Z,13.50
2022-08-26T02:21:09.714Z,13.10
2022-08-26T02:22:08.716Z,13.30
2022-08-26T02:23:09.137Z,12.60
2022-08-26T02:24:08.692Z,12.60
2022-08-26T02:25:08.683Z,12.70
2022-08-26T02:26:08.672Z,13.00
2022-08-26T02:27:08.657Z,13.40
2022-08-26T02:28:08.669Z,12.20
2022-08-26T02:29:08.851Z,12.20
2022-08-26T02:30:08.625Z,12.30
2022-08-26T02:31:08.639Z,12.70
2022-08-26T02:32:08.606Z,12.90
2022-08-26T02:33:08.860Z,12.80
2022-08-26T02:34:08.595Z,13.00
2022-08-26T02:35:08.887Z,13.10
2022-08-26T02:36:08.560Z,13.10
2022-08-26T02:37:08.546Z,13.10
2022-08-26T02:38:09.832Z,12.70
2022-08-26T02:39:08.517Z,13.20
2022-08-26T02:40:08.565Z,12.90
2022-08-26T02:41:08.684Z,13.20
2022-08-26T02:42:08.491Z,12.60
2022-08-26T02:43:08.771Z,12.50
2022-08-26T02:44:08.476Z,12.70
2022-08-26T02:45:08.461Z,13.00
2022-08-26T02:46:08.453Z,13.00
2022-08-26T02:47:08.688Z,13.20
2022-08-26T02:48:08.431Z,13.30
2022-08-26T02:49:08.415Z,13.90
2022-08-26T02:50:08.418Z,14.50
2022-08-26T02:51:08.388Z,13.80
2022-08-26T02:52:08.389Z,13.30
2022-08-26T02:53:08.701Z,13.80
2022-08-26T02:54:08.361Z,13.20
2022-08-26T02:55:08.347Z,13.50
2022-08-26T02:56:08.373Z,13.30
2022-08-26T02:57:08.329Z,13.00
2022-08-26T02:58:08.473Z,13.10
2022-08-26T02:59:08.318Z,13.60
2022-08-26T03:00:08.299Z,13.20
2022-08-26T03:01:08.352Z,13.20
2022-08-26T03:02:08.346Z,13.60
2022-08-26T03:03:08.468Z,13.20
2022-08-26T03:04:08.469Z,13.30
2022-08-26T03:05:08.277Z,14.00
2022-08-26T03:06:08.267Z,13.70
2022-08-26T03:07:08.218Z,13.60
2022-08-26T03:08:08.219Z,13.00
2022-08-26T03:09:08.198Z,14.10
2022-08-26T03:10:08.902Z,12.90
2022-08-26T03:11:08.183Z,13.30
2022-08-26T03:12:08.175Z,12.40
2022-08-26T03:13:08.331Z,13.30
2022-08-26T03:14:08.157Z,13.80
2022-08-26T03:15:17.359Z,12.80
2022-08-26T03:16:09.522Z,13.10
2022-08-26T03:17:08.124Z,14.10
2022-08-26T03:18:08.109Z,14.20
2022-08-26T03:19:08.094Z,12.80
2022-08-26T03:20:08.085Z,13.80
2022-08-26T03:21:08.079Z,13.00
2022-08-26T03:22:08.306Z,13.10
2022-08-26T03:23:08.243Z,12.90
2022-08-26T03:24:08.040Z,13.60
2022-08-26T03:25:08.027Z,13.80
2022-08-26T03:26:08.021Z,13.20
2022-08-26T03:27:08.012Z,13.80
2022-08-26T03:28:09.690Z,12.90
2022-08-26T03:29:07.981Z,13.40
2022-08-26T03:30:07.981Z,13.60
2022-08-26T03:31:08.068Z,13.70
2022-08-26T03:32:07.960Z,13.40
2022-08-26T03:33:08.144Z,13.30
2022-08-26T03:34:08.110Z,14.20
2022-08-26T03:35:07.911Z,14.00
2022-08-26T03:36:07.913Z,13.90
2022-08-26T03:37:07.901Z,13.20
2022-08-26T03:38:07.891Z,13.50
2022-08-26T03:39:07.884Z,13.40
2022-08-26T03:40:08.113Z,14.10
2022-08-26T03:41:07.850Z,14.10
2022-08-26T03:42:07.858Z,13.60
2022-08-26T03:43:09.710Z,13.40
2022-08-26T03:44:07.831Z,14.00
2022-08-26T03:45:08.004Z,14.20
2022-08-26T03:46:07.864Z,14.00
2022-08-26T03:47:07.791Z,14.20
2022-08-26T03:48:07.789Z,14.00
2022-08-26T03:49:07.776Z,14.30
2022-08-26T03:50:07.775Z,14.90
2022-08-26T03:51:07.911Z,14.30
2022-08-26T03:52:07.741Z,14.80
2022-08-26T03:53:07.875Z,14.20
2022-08-26T03:54:08.734Z,14.00
2022-08-26T03:55:07.702Z,13.80
2022-08-26T03:56:07.993Z,14.30
2022-08-26T03:57:07.712Z,13.20
2022-08-26T03:58:07.672Z,14.90
2022-08-26T03:59:07.800Z,14.40
2022-08-26T04:00:07.706Z,14.20
2022-08-26T04:01:07.645Z,14.40
2022-08-26T04:02:11.696Z,14.50
2022-08-26T04:03:07.893Z,14.60
2022-08-26T04:04:07.602Z,15.20
2022-08-26T04:05:07.595Z,14.40
2022-08-26T04:06:07.605Z,14.60
2022-08-26T04:07:07.580Z,15.10
2022-08-26T04:08:07.733Z,15.70
2022-08-26T04:09:07.561Z,14.20
2022-08-26T04:10:07.548Z,14.70
2022-08-26T04:11:07.537Z,16.10
2022-08-26T04:12:07.525Z,14.50
2022-08-26T04:13:07.678Z,15.00
2022-08-26T04:14:07.683Z,15.00
2022-08-26T04:15:07.495Z,14.50
2022-08-26T04:16:07.516Z,14.50
2022-08-26T04:17:07.468Z,15.40
2022-08-26T04:18:07.465Z,15.80
2022-08-26T04:19:07.450Z,15.00
2022-08-26T04:20:07.596Z,15.60
2022-08-26T04:21:08.022Z,15.70
2022-08-26T04:22:07.421Z,15.10
2022-08-26T04:23:07.569Z,15.10
2022-08-26T04:24:10.291Z,15.00
2022-08-26T04:25:07.385Z,15.10
2022-08-26T04:26:07.535Z,15.90
2022-08-26T04:27:07.372Z,16.00
2022-08-26T04:28:07.345Z,16.00
2022-08-26T04:29:07.339Z,15.50
2022-08-26T04:30:07.352Z,16.10
2022-08-26T04:31:07.404Z,15.90
2022-08-26T04:32:09.745Z,15.50
2022-08-26T04:33:12.819Z,15.50
2022-08-26T04:34:08.445Z,14.80
2022-08-26T04:35:07.302Z,14.80
2022-08-26T04:36:07.276Z,15.10
2022-08-26T04:37:07.244Z,15.20
2022-08-26T04:38:07.245Z,15.80
2022-08-26T04:39:07.744Z,15.40
2022-08-26T04:40:07.283Z,16.40
2022-08-26T04:41:07.215Z,16.40
2022-08-26T04:42:08.202Z,15.60
2022-08-26T04:43:07.309Z,16.10
2022-08-26T04:44:07.192Z,16.40
2022-08-26T04:45:10.313Z,16.30
2022-08-26T04:46:07.198Z,16.30
2022-08-26T04:47:07.146Z,16.00
2022-08-26T04:48:07.146Z,16.70
2022-08-26T04:49:07.126Z,16.50
2022-08-26T04:50:07.357Z,16.20
2022-08-26T04:51:07.311Z,15.10
2022-08-26T04:52:07.095Z,16.10
2022-08-26T04:53:07.310Z,16.00
2022-08-26T04:54:07.106Z,15.60
2022-08-26T04:55:08.518Z,16.60
2022-08-26T04:56:07.056Z,16.00
2022-08-26T04:57:07.437Z,16.50
2022-08-26T04:58:07.028Z,16.70
2022-08-26T04:59:07.247Z,17.20
2022-08-26T05:00:07.010Z,15.40
2022-08-26T05:01:06.996Z,16.60
2022-08-26T05:02:07.720Z,16.10
2022-08-26T05:03:07.376Z,17.00
2022-08-26T05:04:08.053Z,17.90
2022-08-26T05:05:06.958Z,19.00
2022-08-26T05:06:06.937Z,18.40
2022-08-26T05:07:06.933Z,19.90
2022-08-26T05:08:06.919Z,18.80
2022-08-26T05:09:07.168Z,19.00
2022-08-26T05:10:08.792Z,18.20
2022-08-26T05:11:06.898Z,17.90
2022-08-26T05:12:06.877Z,17.50
2022-08-26T05:13:06.952Z,18.30
2022-08-26T05:14:07.004Z,17.60
2022-08-26T05:15:06.853Z,18.50
2022-08-26T05:16:06.871Z,17.80
2022-08-26T05:17:06.829Z,17.50
2022-08-26T05:18:06.826Z,18.60
2022-08-26T05:19:06.969Z,17.30
2022-08-26T05:20:06.797Z,17.40
2022-08-26T05:21:06.796Z,17.30
2022-08-26T05:22:06.769Z,17.30
2022-08-26T05:23:06.922Z,16.90
2022-08-26T05:24:06.748Z,18.70
2022-08-26T05:25:06.920Z,16.70
2022-08-26T05:26:06.736Z,17.00
2022-08-26T05:27:11.409Z,17.30
2022-08-26T05:28:07.720Z,16.90
2022-08-26T05:29:06.732Z,16.40
2022-08-26T05:30:06.691Z,16.90
2022-08-26T05:31:06.892Z,15.70
2022-08-26T05:32:06.660Z,15.90
2022-08-26T05:33:06.728Z,15.40
2022-08-26T05:34:07.009Z,16.90
2022-08-26T05:35:08.754Z,16.20
2022-08-26T05:36:06.630Z,17.00
2022-08-26T05:37:06.830Z,17.20
2022-08-26T05:38:11.815Z,17.10
2022-08-26T05:39:07.601Z,15.10
2022-08-26T05:40:06.621Z,16.50
2022-08-26T05:41:06.571Z,15.90
2022-08-26T05:42:06.570Z,16.10
2022-08-26T05:43:06.791Z,16.90
2022-08-26T05:44:06.544Z,16.20
2022-08-26T05:45:06.530Z,16.40
2022-08-26T05:46:06.670Z,16.00
2022-08-26T05:47:06.506Z,16.20
2022-08-26T05:48:06.507Z,16.40
2022-08-26T05:49:06.660Z,16.70
2022-08-26T05:50:07.471Z,17.40
2022-08-26T05:51:06.460Z,17.30
2022-08-26T05:52:06.474Z,17.70
2022-08-26T05:53:06.457Z,16.90
2022-08-26T05:54:06.466Z,17.10
2022-08-26T05:55:06.710Z,17.80
2022-08-26T05:56:06.404Z,16.00
2022-08-26T05:57:06.401Z,17.30
2022-08-26T05:58:06.395Z,17.60
2022-08-26T05:59:06.375Z,17.10
2022-08-26T06:00:07.552Z,16.20
2022-08-26T06:01:06.373Z,16.60
2022-08-26T06:02:06.386Z,16.40
2022-08-26T06:03:06.436Z,16.80
2022-08-26T06:04:06.328Z,17.10
2022-08-26T06:05:06.317Z,17.70
2022-08-26T06:06:06.777Z,16.00
2022-08-26T06:07:06.310Z,18.70
2022-08-26T06:08:06.277Z,19.90
2022-08-26T06:09:06.271Z,21.40
2022-08-26T06:10:30.918Z,19.00
2022-08-26T06:11:07.481Z,18.50
2022-08-26T06:12:07.248Z,17.90
2022-08-26T06:13:11.521Z,18.60
2022-08-26T06:14:07.213Z,17.30
2022-08-26T06:15:06.202Z,17.00
2022-08-26T06:16:06.226Z,18.30
2022-08-26T06:17:06.363Z,19.20
2022-08-26T06:18:06.220Z,17.50
2022-08-26T06:19:10.230Z,18.80
2022-08-26T06:20:07.155Z,18.90
2022-08-26T06:21:06.137Z,18.40
2022-08-26T06:22:06.143Z,19.50
2022-08-26T06:23:06.370Z,19.80
2022-08-26T06:24:06.106Z,18.20
2022-08-26T06:25:06.092Z,18.80
2022-08-26T06:26:06.088Z,17.90
2022-08-26T06:27:06.072Z,17.40
2022-08-26T06:28:06.063Z,18.40
2022-08-26T06:29:06.250Z,18.70
2022-08-26T06:30:06.068Z,18.30
2022-08-26T06:31:06.272Z,19.00
2022-08-26T06:32:06.023Z,18.50
2022-08-26T06:33:06.017Z,20.50
2022-08-26T06:34:10.386Z,20.60
2022-08-26T06:35:06.154Z,20.70
2022-08-26T06:36:06.987Z,21.20
2022-08-26T06:37:06.491Z,21.50
2022-08-26T06:38:05.961Z,20.60
2022-08-26T06:39:05.971Z,18.80
2022-08-26T06:40:05.993Z,18.80
2022-08-26T06:41:06.088Z,18.80
2022-08-26T06:42:06.167Z,19.10
2022-08-26T06:43:05.903Z,18.40
2022-08-26T06:44:05.887Z,18.10
2022-08-26T06:45:05.898Z,16.90
2022-08-26T06:46:05.880Z,20.50
2022-08-26T06:47:06.026Z,19.20
2022-08-26T06:48:05.854Z,20.40
2022-08-26T06:49:05.837Z,20.40
2022-08-26T06:50:05.825Z,22.60
2022-08-26T06:51:05.818Z,21.80
2022-08-26T06:52:05.826Z,21.60
2022-08-26T06:53:06.038Z,22.80
2022-08-26T06:54:05.778Z,23.90
2022-08-26T06:55:05.774Z,22.80
2022-08-26T06:56:05.771Z,23.60
2022-08-26T06:57:05.754Z,22.90
2022-08-26T06:58:05.750Z,22.20
2022-08-26T06:59:07.616Z,21.40
2022-08-26T07:00:05.726Z,21.30
2022-08-26T07:01:11.361Z,20.00
2022-08-26T07:02:06.742Z,19.90
2022-08-26T07:03:05.753Z,18.70
2022-08-26T07:04:07.938Z,18.20
2022-08-26T07:05:06.836Z,19.00
2022-08-26T07:06:05.657Z,18.70
2022-08-26T07:07:05.647Z,18.60
2022-08-26T07:08:05.629Z,18.60
2022-08-26T07:09:05.618Z,19.90
2022-08-26T07:10:05.616Z,18.90
2022-08-26T07:11:05.655Z,20.30
2022-08-26T07:12:05.577Z,19.00
2022-08-26T07:13:05.968Z,19.50
2022-08-26T07:14:05.567Z,19.10
2022-08-26T07:15:05.564Z,18.80
2022-08-26T07:16:05.568Z,23.20
2022-08-26T07:17:05.860Z,22.80
2022-08-26T07:18:05.533Z,25.30
2022-08-26T07:19:10.890Z,25.40
2022-08-26T07:20:06.498Z,23.90
2022-08-26T07:21:05.500Z,22.30
2022-08-26T07:22:05.479Z,22.40
2022-08-26T07:23:05.663Z,22.60
2022-08-26T07:24:05.469Z,22.90
2022-08-26T07:25:05.449Z,21.10
2022-08-26T07:26:05.429Z,21.90
2022-08-26T07:27:05.811Z,22.60
2022-08-26T07:28:05.439Z,20.90
2022-08-26T07:29:05.398Z,21.80
2022-08-26T07:30:05.393Z,22.00
2022-08-26T07:31:05.398Z,20.90
2022-08-26T07:32:05.359Z,20.60
2022-08-26T07:33:05.387Z,20.80
2022-08-26T07:34:05.381Z,18.80
2022-08-26T07:35:05.336Z,18.30
2022-08-26T07:36:05.319Z,18.90
2022-08-26T07:37:05.316Z,18.50
2022-08-26T07:38:05.302Z,18.50
2022-08-26T07:39:05.300Z,18.30
2022-08-26T07:40:06.131Z,18.20
2022-08-26T07:41:05.269Z,20.30
2022-08-26T07:42:08.027Z,22.20
2022-08-26T07:43:05.313Z,21.50
2022-08-26T07:44:05.239Z,21.70
2022-08-26T07:45:05.245Z,20.60
2022-08-26T07:46:05.371Z,22.50
2022-08-26T07:47:10.212Z,21.90
2022-08-26T07:48:06.190Z,24.60
2022-08-26T07:49:05.229Z,24.60
2022-08-26T07:50:05.170Z,23.60
2022-08-26T07:51:05.170Z,24.30
2022-08-26T07:52:05.381Z,24.90
2022-08-26T07:53:05.257Z,24.30
2022-08-26T07:54:05.132Z,23.20
2022-08-26T07:55:05.119Z,22.30
2022-08-26T07:56:05.102Z,20.80
2022-08-26T07:57:05.261Z,20.80
2022-08-26T07:58:05.265Z,19.30
2022-08-26T07:59:13.962Z,20.70
2022-08-26T08:00:06.066Z,18.90
2022-08-26T08:01:05.123Z,18.00
2022-08-26T08:02:05.041Z,16.30
2022-08-26T08:03:05.088Z,16.80
2022-08-26T08:04:05.192Z,17.30
2022-08-26T08:05:05.074Z,16.10
2022-08-26T08:06:04.992Z,16.90
2022-08-26T08:07:04.994Z,18.00
2022-08-26T08:08:27.223Z,15.90
2022-08-26T08:09:06.174Z,16.10
2022-08-26T08:10:09.662Z,15.60
2022-08-26T08:11:05.942Z,15.40
2022-08-26T08:12:04.959Z,16.80
2022-08-26T08:13:04.961Z,16.50
2022-08-26T08:14:08.446Z,16.40
2022-08-26T08:15:05.150Z,16.00
2022-08-26T08:16:04.898Z,15.10
2022-08-26T08:17:05.039Z,15.10
2022-08-26T08:18:04.864Z,16.00
2022-08-26T08:19:04.892Z,16.40
2022-08-26T08:20:04.862Z,13.50
2022-08-26T08:21:21.200Z,14.50
2022-08-26T08:22:06.892Z,15.10
2022-08-26T08:23:05.817Z,15.20
2022-08-26T08:24:04.851Z,13.90
2022-08-26T08:25:08.137Z,15.30
2022-08-26T08:26:05.944Z,15.10
2022-08-26T08:27:04.772Z,15.90
2022-08-26T08:28:04.776Z,16.50
2022-08-26T08:29:04.762Z,18.70
2022-08-26T08:30:04.734Z,16.50
2022-08-26T08:31:04.759Z,14.60
2022-08-26T08:32:05.185Z,14.20
2022-08-26T08:33:04.770Z,14.00
2022-08-26T08:34:04.685Z,14.90
2022-08-26T08:35:10.816Z,14.20
2022-08-26T08:36:05.686Z,14.70
2022-08-26T08:37:08.718Z,13.70
2022-08-26T08:38:05.880Z,14.70
2022-08-26T08:39:04.657Z,14.50
2022-08-26T08:40:04.662Z,14.10
2022-08-26T08:41:04.623Z,15.00
2022-08-26T08:42:04.605Z,14.10
2022-08-26T08:43:04.611Z,14.50
2022-08-26T08:44:04.787Z,13.70
2022-08-26T08:45:04.583Z,12.70
2022-08-26T08:46:04.623Z,12.90
2022-08-26T08:47:04.559Z,13.80
2022-08-26T08:48:04.549Z,14.00
2022-08-26T08:49:04.525Z,13.60
2022-08-26T08:50:04.668Z,13.20
2022-08-26T08:51:04.523Z,14.00
2022-08-26T08:52:04.487Z,12.80
2022-08-26T08:53:05.808Z,12.40
2022-08-26T08:54:04.478Z,14.40
2022-08-26T08:55:04.470Z,14.40
2022-08-26T08:56:05.639Z,13.70
2022-08-26T08:57:04.460Z,15.90
2022-08-26T08:58:04.433Z,17.20
2022-08-26T08:59:04.418Z,15.20
2022-08-26T09:00:04.408Z,14.50
2022-08-26T09:01:04.478Z,14.80
2022-08-26T09:02:04.747Z,13.90
2022-08-26T09:03:04.386Z,14.00
2022-08-26T09:04:04.358Z,13.30
2022-08-26T09:05:04.375Z,13.80
2022-08-26T09:06:04.342Z,17.60
2022-08-26T09:07:04.338Z,16.10
2022-08-26T09:08:04.498Z,14.60
2022-08-26T09:09:04.317Z,14.30
2022-08-26T09:10:04.297Z,13.40
2022-08-26T09:11:04.298Z,14.40
2022-08-26T09:12:04.278Z,13.60
2022-08-26T09:13:04.268Z,14.40
2022-08-26T09:14:04.442Z,13.80
2022-08-26T09:15:04.297Z,14.40
2022-08-26T09:16:04.237Z,13.80
2022-08-26T09:17:04.298Z,13.60
2022-08-26T09:18:05.597Z,13.10
2022-08-26T09:19:04.198Z,12.50
2022-08-26T09:20:04.359Z,12.80
2022-08-26T09:21:04.180Z,12.20
2022-08-26T09:22:08.804Z,12.20
2022-08-26T09:23:05.250Z,12.10
2022-08-26T09:24:04.152Z,11.70
2022-08-26T09:25:04.135Z,12.00
2022-08-26T09:26:04.300Z,10.90
2022-08-26T09:27:04.114Z,11.60
2022-08-26T09:28:04.118Z,13.20
2022-08-26T09:29:04.093Z,12.40
2022-08-26T09:30:04.093Z,12.80
2022-08-26T09:31:08.013Z,13.10
2022-08-26T09:32:05.232Z,13.80
2022-08-26T09:33:04.051Z,13.30
2022-08-26T09:34:05.042Z,12.70
2022-08-26T09:35:04.030Z,13.10
2022-08-26T09:36:04.021Z,12.80
2022-08-26T09:37:04.685Z,12.50
2022-08-26T09:38:04.854Z,12.00
2022-08-26T09:39:04.413Z,12.50
2022-08-26T09:40:04.002Z,12.30
2022-08-26T09:41:05.057Z,12.70
2022-08-26T09:42:03.962Z,12.60
2022-08-26T09:43:03.945Z,12.50
2022-08-26T09:44:04.149Z,11.70
2022-08-26T09:45:03.958Z,12.60
2022-08-26T09:46:03.945Z,12.70
2022-08-26T09:47:03.931Z,12.10
2022-08-26T09:48:03.893Z,12.60
2022-08-26T09:49:03.881Z,11.70
2022-08-26T09:50:04.022Z,12.10
2022-08-26T09:51:03.851Z,12.50
2022-08-26T09:52:03.852Z,12.30
2022-08-26T09:53:03.864Z,12.20
2022-08-26T09:54:05.721Z,12.20
2022-08-26T09:55:03.813Z,12.50
2022-08-26T09:56:04.162Z,12.50
2022-08-26T09:57:03.794Z,11.40
2022-08-26T09:58:04.186Z,11.80
2022-08-26T09:59:06.461Z,12.20
2022-08-26T10:00:03.764Z,12.20
2022-08-26T10:01:03.845Z,12.50
2022-08-26T10:02:03.904Z,12.60
2022-08-26T10:03:04.732Z,12.20
2022-08-26T10:04:03.744Z,12.60
2022-08-26T10:05:09.208Z,11.80
2022-08-26T10:06:04.708Z,12.60
2022-08-26T10:07:03.686Z,11.90
2022-08-26T10:08:03.925Z,11.80
2022-08-26T10:09:08.299Z,11.60
2022-08-26T10:10:04.649Z,12.50
2022-08-26T10:11:03.645Z,12.20
2022-08-26T10:12:03.624Z,12.00
2022-08-26T10:13:03.641Z,12.10
2022-08-26T10:14:03.779Z,11.10
2022-08-26T10:15:03.602Z,12.60
2022-08-26T10:16:03.605Z,11.30
2022-08-26T10:17:03.578Z,11.40
2022-08-26T10:18:03.730Z,10.40
2022-08-26T10:19:03.558Z,11.20
2022-08-26T10:20:03.707Z,13.10
2022-08-26T10:21:03.610Z,13.30
2022-08-26T10:22:03.772Z,12.60
2022-08-26T10:23:03.521Z,15.60
2022-08-26T10:24:03.526Z,14.10
2022-08-26T10:25:03.834Z,10.70
2022-08-26T10:26:03.480Z,10.70
2022-08-26T10:27:03.472Z,10.90
2022-08-26T10:28:03.642Z,9.30
2022-08-26T10:29:03.457Z,10.20
2022-08-26T10:30:03.445Z,10.00
2022-08-26T10:31:03.427Z,10.50
2022-08-26T10:32:03.791Z,10.80
2022-08-26T10:33:03.439Z,10.40
2022-08-26T10:34:03.597Z,11.00
2022-08-26T10:35:03.386Z,11.20
2022-08-26T10:36:03.393Z,11.40
2022-08-26T10:37:13.975Z,10.80
2022-08-26T10:38:04.348Z,11.20
2022-08-26T10:39:03.347Z,9.20
2022-08-26T10:40:03.562Z,9.70
2022-08-26T10:41:03.347Z,9.10
2022-08-26T10:42:04.309Z,9.30
2022-08-26T10:43:07.180Z,10.30
2022-08-26T10:44:04.308Z,8.80
2022-08-26T10:45:03.279Z,9.40
2022-08-26T10:46:03.569Z,9.60
2022-08-26T10:47:03.271Z,9.50
2022-08-26T10:48:03.302Z,9.80
2022-08-26T10:49:03.388Z,9.50
2022-08-26T10:50:03.663Z,9.40
2022-08-26T10:51:03.224Z,10.20
2022-08-26T10:52:03.361Z,9.70
2022-08-26T10:53:04.193Z,9.40
2022-08-26T10:54:03.349Z,9.20
2022-08-26T10:55:03.412Z,8.90
2022-08-26T10:56:03.163Z,9.00
2022-08-26T10:57:03.157Z,9.10
2022-08-26T10:58:04.750Z,9.20
2022-08-26T10:59:03.122Z,8.70
2022-08-26T11:00:04.299Z,8.20
2022-08-26T11:01:03.389Z,8.60
2022-08-26T11:02:04.103Z,7.80
2022-08-26T11:03:03.155Z,7.30
2022-08-26T11:04:03.081Z,8.40
2022-08-26T11:05:03.077Z,7.80
2022-08-26T11:06:03.071Z,7.00
2022-08-26T11:07:03.550Z,7.80
2022-08-26T11:08:03.038Z,7.50
2022-08-26T11:09:03.019Z,7.80
2022-08-26T11:10:03.033Z,7.70
2022-08-26T11:11:04.003Z,7.80
2022-08-26T11:12:09.943Z,8.10
2022-08-26T11:13:04.427Z,8.70
2022-08-26T11:14:03.003Z,9.00
2022-08-26T11:15:02.992Z,9.20
2022-08-26T11:16:03.693Z,9.10
2022-08-26T11:17:02.967Z,9.30
2022-08-26T11:18:03.037Z,9.00
2022-08-26T11:19:03.125Z,8.10
2022-08-26T11:20:08.948Z,7.50
2022-08-26T11:21:04.018Z,8.10
2022-08-26T11:22:03.893Z,8.70
2022-08-26T11:23:02.884Z,8.00
2022-08-26T11:24:02.880Z,8.40
2022-08-26T11:25:03.042Z,8.60
2022-08-26T11:26:02.852Z,8.90
2022-08-26T11:27:02.854Z,8.10
2022-08-26T11:28:02.848Z,8.60
2022-08-26T11:29:03.142Z,8.90
2022-08-26T11:30:02.855Z,8.50
2022-08-26T11:31:03.269Z,8.90
2022-08-26T11:32:03.102Z,8.70
2022-08-26T11:33:02.815Z,8.80
2022-08-26T11:34:02.852Z,9.00
2022-08-26T11:35:02.745Z,8.90
2022-08-26T11:36:12.074Z,8.70
2022-08-26T11:37:04.168Z,7.70
2022-08-26T11:38:04.374Z,7.80
2022-08-26T11:39:02.803Z,8.80
2022-08-26T11:40:02.919Z,7.80
2022-08-26T11:41:03.301Z,7.60
2022-08-26T11:42:02.676Z,7.50
2022-08-26T11:43:02.941Z,8.40
2022-08-26T11:44:02.656Z,7.60
2022-08-26T11:45:05.676Z,8.10
2022-08-26T11:46:02.758Z,8.20
2022-08-26T11:47:02.719Z,8.10
2022-08-26T11:48:02.666Z,8.70
2022-08-26T11:49:02.866Z,8.00
2022-08-26T11:50:02.604Z,8.10
2022-08-26T11:51:02.578Z,8.40
2022-08-26T11:52:02.599Z,8.30
2022-08-26T11:53:02.663Z,8.10
2022-08-26T11:54:02.556Z,8.10
2022-08-26T11:55:02.712Z,8.30
2022-08-26T11:56:02.532Z,8.50
2022-08-26T11:57:07.787Z,8.00
2022-08-26T11:58:04.691Z,8.30
2022-08-26T11:59:02.497Z,8.40
2022-08-26T12:00:02.508Z,8.10
2022-08-26T12:01:03.676Z,8.60
2022-08-26T12:02:02.474Z,8.60
2022-08-26T12:03:02.539Z,8.00
2022-08-26T12:04:02.556Z,8.40
2022-08-26T12:05:02.423Z,8.00
2022-08-26T12:06:02.435Z,7.70
2022-08-26T12:07:02.596Z,7.40
2022-08-26T12:08:02.430Z,7.00
2022-08-26T12:09:02.382Z,8.20
2022-08-26T12:10:02.556Z,8.60
2022-08-26T12:11:02.394Z,8.20
2022-08-26T12:12:02.363Z,7.70
2022-08-26T12:13:02.524Z,7.50
2022-08-26T12:14:02.325Z,7.90
2022-08-26T12:15:02.314Z,7.90
2022-08-26T12:16:02.362Z,7.30
2022-08-26T12:17:02.285Z,7.70
2022-08-26T12:18:02.310Z,9.20
2022-08-26T12:19:02.450Z,11.00
2022-08-26T12:20:03.116Z,8.80
2022-08-26T12:21:02.245Z,8.90
2022-08-26T12:22:02.248Z,7.80
2022-08-26T12:23:02.502Z,8.20
2022-08-26T12:24:02.218Z,8.10
2022-08-26T12:25:02.209Z,7.90
2022-08-26T12:26:02.219Z,8.40
2022-08-26T12:27:02.207Z,8.70
2022-08-26T12:28:02.177Z,7.80
2022-08-26T12:29:02.363Z,8.50
2022-08-26T12:30:03.183Z,7.90
2022-08-26T12:31:02.139Z,7.80
2022-08-26T12:32:02.210Z,8.00
2022-08-26T12:33:02.151Z,8.10
2022-08-26T12:34:03.306Z,8.40
2022-08-26T12:35:02.132Z,7.80
2022-08-26T12:36:02.120Z,8.50
2022-08-26T12:37:02.103Z,7.80
2022-08-26T12:38:02.102Z,8.00
2022-08-26T12:39:02.092Z,7.50
2022-08-26T12:40:02.314Z,8.10
2022-08-26T12:41:02.065Z,7.20
2022-08-26T12:42:02.072Z,7.00
2022-08-26T12:43:02.044Z,7.00
2022-08-26T12:44:02.078Z,6.80
2022-08-26T12:45:02.027Z,7.00
2022-08-26T12:46:02.296Z,6.90
2022-08-26T12:47:01.998Z,6.80
2022-08-26T12:48:02.066Z,7.00
2022-08-26T12:49:01.989Z,7.20
2022-08-26T12:50:01.975Z,6.50
2022-08-26T12:51:01.966Z,6.90
2022-08-26T12:52:02.136Z,7.00
2022-08-26T12:53:01.937Z,7.10
2022-08-26T12:54:01.953Z,6.70
2022-08-26T12:55:01.951Z,7.10
2022-08-26T12:56:01.907Z,6.60
2022-08-26T12:57:01.897Z,7.00